sensor_id;sensor_type;location;lat;lon;timestamp;pressure;altitude;pressure_sealevel;temperature;humidity
78892;BME280;68368;51.728;5.248;2023-12-07T00:02:01;102009.86;;;0.49;100.00
78892;BME280;68368;51.728;5.248;2023-12-07T00:04:06;102013.05;;;0.46;100.00
78892;BME280;68368;51.728;5.248;2023-12-07T00:06:14;102011.98;;;0.42;100.00
78892;BME280;68368;51.728;5.248;2023-12-07T00:08:20;102006.70;;;0.38;100.00
78892;BME280;68368;51.728;5.248;2023-12-07T00:10:27;102001.23;;;0.37;100.00
78892;BME280;68368;51.728;5.248;2023-12-07T00:12:31;101994.71;;;0.36;100.00
78892;BME280;68368;51.728;5.248;2023-12-07T00:14:38;101991.05;;;0.36;100.00
78892;BME280;68368;51.728;5.248;2023-12-07T00:16:43;101987.75;;;0.36;100.00
78892;BME280;68368;51.728;5.248;2023-12-07T00:18:47;101992.48;;;0.36;100.00
78892;BME280;68368;51.728;5.248;2023-12-07T00:20:52;101995.42;;;0.36;100.00
78892;BME280;68368;51.728;5.248;2023-12-07T00:22:57;101995.92;;;0.35;100.00
78892;BME280;68368;51.728;5.248;2023-12-07T00:25:02;101997.86;;;0.36;100.00
78892;BME280;68368;51.728;5.248;2023-12-07T00:27:07;101995.52;;;0.38;100.00
78892;BME280;68368;51.728;5.248;2023-12-07T00:29:12;101996.49;;;0.40;100.00
78892;BME280;68368;51.728;5.248;2023-12-07T00:31:18;102002.59;;;0.43;100.00
78892;BME280;68368;51.728;5.248;2023-12-07T00:33:26;102005.95;;;0.40;100.00
78892;BME280;68368;51.728;5.248;2023-12-07T00:35:31;102003.91;;;0.35;100.00
78892;BME280;68368;51.728;5.248;2023-12-07T00:37:36;102003.38;;;0.31;100.00
78892;BME280;68368;51.728;5.248;2023-12-07T00:39:41;102008.08;;;0.28;100.00
78892;BME280;68368;51.728;5.248;2023-12-07T00:41:46;102003.63;;;0.22;100.00
78892;BME280;68368;51.728;5.248;2023-12-07T00:43:51;102001.85;;;0.15;100.00
78892;BME280;68368;51.728;5.248;2023-12-07T00:45:56;102002.39;;;0.05;100.00
78892;BME280;68368;51.728;5.248;2023-12-07T00:48:01;102005.95;;;-0.01;100.00
78892;BME280;68368;51.728;5.248;2023-12-07T00:50:07;102003.86;;;-0.08;100.00
78892;BME280;68368;51.728;5.248;2023-12-07T00:52:12;102000.39;;;-0.14;100.00
78892;BME280;68368;51.728;5.248;2023-12-07T00:54:17;102005.09;;;-0.17;100.00
78892;BME280;68368;51.728;5.248;2023-12-07T00:56:22;101999.41;;;-0.22;100.00
78892;BME280;68368;51.728;5.248;2023-12-07T00:58:28;101996.75;;;-0.27;100.00
78892;BME280;68368;51.728;5.248;2023-12-07T01:00:33;102002.38;;;-0.33;100.00
78892;BME280;68368;51.728;5.248;2023-12-07T01:02:38;102003.00;;;-0.37;100.00
78892;BME280;68368;51.728;5.248;2023-12-07T01:04:43;102005.45;;;-0.40;100.00
78892;BME280;68368;51.728;5.248;2023-12-07T01:06:51;102006.59;;;-0.42;100.00
78892;BME280;68368;51.728;5.248;2023-12-07T01:08:55;102012.20;;;-0.45;100.00
78892;BME280;68368;51.728;5.248;2023-12-07T01:11:00;102014.30;;;-0.48;100.00
78892;BME280;68368;51.728;5.248;2023-12-07T01:13:05;102011.33;;;-0.52;100.00
78892;BME280;68368;51.728;5.248;2023-12-07T01:15:11;102010.79;;;-0.52;100.00
78892;BME280;68368;51.728;5.248;2023-12-07T01:17:16;102013.53;;;-0.49;100.00
78892;BME280;68368;51.728;5.248;2023-12-07T01:19:21;102013.35;;;-0.46;100.00
78892;BME280;68368;51.728;5.248;2023-12-07T01:21:26;102013.11;;;-0.47;100.00
78892;BME280;68368;51.728;5.248;2023-12-07T01:23:31;102013.48;;;-0.50;100.00
78892;BME280;68368;51.728;5.248;2023-12-07T01:25:36;102018.13;;;-0.52;100.00
78892;BME280;68368;51.728;5.248;2023-12-07T01:27:41;102013.26;;;-0.51;100.00
78892;BME280;68368;51.728;5.248;2023-12-07T01:29:46;102016.77;;;-0.51;100.00
78892;BME280;68368;51.728;5.248;2023-12-07T01:31:53;102022.15;;;-0.48;100.00
78892;BME280;68368;51.728;5.248;2023-12-07T01:33:57;102024.23;;;-0.45;100.00
78892;BME280;68368;51.728;5.248;2023-12-07T01:36:02;102024.71;;;-0.42;100.00
78892;BME280;68368;51.728;5.248;2023-12-07T01:38:07;102023.38;;;-0.41;100.00
78892;BME280;68368;51.728;5.248;2023-12-07T01:40:15;102024.26;;;-0.41;100.00
78892;BME280;68368;51.728;5.248;2023-12-07T01:42:20;102018.46;;;-0.42;100.00
78892;BME280;68368;51.728;5.248;2023-12-07T01:44:25;102025.73;;;-0.43;100.00
78892;BME280;68368;51.728;5.248;2023-12-07T01:46:30;102021.66;;;-0.44;100.00
78892;BME280;68368;51.728;5.248;2023-12-07T01:48:35;102022.98;;;-0.45;100.00
78892;BME280;68368;51.728;5.248;2023-12-07T01:50:40;102024.49;;;-0.50;100.00
78892;BME280;68368;51.728;5.248;2023-12-07T01:52:49;102023.48;;;-0.56;100.00
78892;BME280;68368;51.728;5.248;2023-12-07T01:54:55;102021.27;;;-0.61;100.00
78892;BME280;68368;51.728;5.248;2023-12-07T01:57:00;102021.86;;;-0.66;100.00
78892;BME280;68368;51.728;5.248;2023-12-07T01:59:05;102019.36;;;-0.71;100.00
78892;BME280;68368;51.728;5.248;2023-12-07T02:01:10;102019.80;;;-0.75;100.00
78892;BME280;68368;51.728;5.248;2023-12-07T02:03:15;102018.81;;;-0.78;100.00
78892;BME280;68368;51.728;5.248;2023-12-07T02:05:21;102022.73;;;-0.79;100.00
78892;BME280;68368;51.728;5.248;2023-12-07T02:07:27;102019.73;;;-0.80;100.00
78892;BME280;68368;51.728;5.248;2023-12-07T02:09:33;102022.23;;;-0.79;100.00
78892;BME280;68368;51.728;5.248;2023-12-07T02:11:38;102018.98;;;-0.78;100.00
78892;BME280;68368;51.728;5.248;2023-12-07T02:13:43;102016.50;;;-0.75;100.00
78892;BME280;68368;51.728;5.248;2023-12-07T02:15:48;102016.34;;;-0.72;100.00
78892;BME280;68368;51.728;5.248;2023-12-07T02:18:01;102015.06;;;-0.70;100.00
78892;BME280;68368;51.728;5.248;2023-12-07T02:20:13;102008.89;;;-0.67;100.00
78892;BME280;68368;51.728;5.248;2023-12-07T02:22:27;102017.34;;;-0.66;100.00
78892;BME280;68368;51.728;5.248;2023-12-07T02:24:37;102023.02;;;-0.64;100.00
78892;BME280;68368;51.728;5.248;2023-12-07T02:26:42;102023.13;;;-0.62;100.00
78892;BME280;68368;51.728;5.248;2023-12-07T02:28:47;102022.48;;;-0.61;100.00
78892;BME280;68368;51.728;5.248;2023-12-07T02:30:52;102023.16;;;-0.62;100.00
78892;BME280;68368;51.728;5.248;2023-12-07T02:32:57;102018.59;;;-0.62;100.00
78892;BME280;68368;51.728;5.248;2023-12-07T02:35:02;102025.91;;;-0.62;100.00
78892;BME280;68368;51.728;5.248;2023-12-07T02:37:08;102021.92;;;-0.61;100.00
78892;BME280;68368;51.728;5.248;2023-12-07T02:39:13;102017.98;;;-0.60;100.00
78892;BME280;68368;51.728;5.248;2023-12-07T02:41:19;102011.55;;;-0.60;100.00
78892;BME280;68368;51.728;5.248;2023-12-07T02:43:25;102010.49;;;-0.60;100.00
78892;BME280;68368;51.728;5.248;2023-12-07T02:45:31;102007.97;;;-0.62;100.00
78892;BME280;68368;51.728;5.248;2023-12-07T02:47:36;102010.45;;;-0.64;100.00
78892;BME280;68368;51.728;5.248;2023-12-07T02:49:42;102012.48;;;-0.69;100.00
78892;BME280;68368;51.728;5.248;2023-12-07T02:51:49;102008.09;;;-0.73;100.00
78892;BME280;68368;51.728;5.248;2023-12-07T02:53:53;102004.06;;;-0.76;100.00
78892;BME280;68368;51.728;5.248;2023-12-07T02:55:58;102007.92;;;-0.79;100.00
78892;BME280;68368;51.728;5.248;2023-12-07T02:58:04;102008.47;;;-0.81;100.00
78892;BME280;68368;51.728;5.248;2023-12-07T03:00:12;102007.25;;;-0.84;100.00
78892;BME280;68368;51.728;5.248;2023-12-07T03:02:17;102005.53;;;-0.87;100.00
78892;BME280;68368;51.728;5.248;2023-12-07T03:04:23;102005.77;;;-0.89;100.00
78892;BME280;68368;51.728;5.248;2023-12-07T03:06:29;102012.23;;;-0.89;100.00
78892;BME280;68368;51.728;5.248;2023-12-07T03:08:34;102018.63;;;-0.87;100.00
78892;BME280;68368;51.728;5.248;2023-12-07T03:10:39;102018.51;;;-0.83;100.00
78892;BME280;68368;51.728;5.248;2023-12-07T03:12:44;102021.94;;;-0.77;100.00
78892;BME280;68368;51.728;5.248;2023-12-07T03:14:49;102015.94;;;-0.73;100.00
78892;BME280;68368;51.728;5.248;2023-12-07T03:16:54;102019.70;;;-0.67;100.00
78892;BME280;68368;51.728;5.248;2023-12-07T03:18:59;102014.34;;;-0.63;100.00
78892;BME280;68368;51.728;5.248;2023-12-07T03:21:07;102016.62;;;-0.60;100.00
78892;BME280;68368;51.728;5.248;2023-12-07T03:23:12;102023.92;;;-0.57;100.00
78892;BME280;68368;51.728;5.248;2023-12-07T03:25:17;102030.16;;;-0.55;100.00
78892;BME280;68368;51.728;5.248;2023-12-07T03:27:25;102029.89;;;-0.53;100.00
78892;BME280;68368;51.728;5.248;2023-12-07T03:29:30;102027.48;;;-0.53;100.00
78892;BME280;68368;51.728;5.248;2023-12-07T03:31:36;102025.31;;;-0.54;100.00
78892;BME280;68368;51.728;5.248;2023-12-07T03:33:42;102024.12;;;-0.57;100.00
78892;BME280;68368;51.728;5.248;2023-12-07T03:35:47;102026.36;;;-0.57;100.00
78892;BME280;68368;51.728;5.248;2023-12-07T03:37:52;102025.98;;;-0.58;100.00
78892;BME280;68368;51.728;5.248;2023-12-07T03:40:00;102025.20;;;-0.59;100.00
78892;BME280;68368;51.728;5.248;2023-12-07T03:42:06;102033.60;;;-0.62;100.00
78892;BME280;68368;51.728;5.248;2023-12-07T03:44:11;102033.89;;;-0.66;100.00
78892;BME280;68368;51.728;5.248;2023-12-07T03:46:16;102031.52;;;-0.68;100.00
78892;BME280;68368;51.728;5.248;2023-12-07T03:48:21;102036.33;;;-0.70;100.00
78892;BME280;68368;51.728;5.248;2023-12-07T03:50:26;102037.57;;;-0.73;100.00
78892;BME280;68368;51.728;5.248;2023-12-07T03:52:31;102040.40;;;-0.75;100.00
78892;BME280;68368;51.728;5.248;2023-12-07T03:54:36;102040.44;;;-0.74;100.00
78892;BME280;68368;51.728;5.248;2023-12-07T03:56:41;102038.20;;;-0.70;100.00
78892;BME280;68368;51.728;5.248;2023-12-07T03:58:46;102044.05;;;-0.69;100.00
78892;BME280;68368;51.728;5.248;2023-12-07T04:00:54;102044.25;;;-0.68;100.00
78892;BME280;68368;51.728;5.248;2023-12-07T04:02:59;102042.66;;;-0.69;100.00
78892;BME280;68368;51.728;5.248;2023-12-07T04:05:04;102047.02;;;-0.69;100.00
78892;BME280;68368;51.728;5.248;2023-12-07T04:07:09;102047.39;;;-0.68;100.00
78892;BME280;68368;51.728;5.248;2023-12-07T04:09:14;102042.69;;;-0.68;100.00
78892;BME280;68368;51.728;5.248;2023-12-07T04:11:19;102047.12;;;-0.66;100.00
78892;BME280;68368;51.728;5.248;2023-12-07T04:13:24;102046.34;;;-0.64;100.00
78892;BME280;68368;51.728;5.248;2023-12-07T04:15:29;102042.77;;;-0.63;100.00
78892;BME280;68368;51.728;5.248;2023-12-07T04:17:36;102041.24;;;-0.62;100.00
78892;BME280;68368;51.728;5.248;2023-12-07T04:19:43;102037.71;;;-0.63;100.00
78892;BME280;68368;51.728;5.248;2023-12-07T04:21:52;102038.02;;;-0.64;100.00
78892;BME280;68368;51.728;5.248;2023-12-07T04:23:57;102043.73;;;-0.65;100.00
78892;BME280;68368;51.728;5.248;2023-12-07T04:26:02;102044.21;;;-0.65;100.00
78892;BME280;68368;51.728;5.248;2023-12-07T04:28:08;102047.09;;;-0.67;100.00
78892;BME280;68368;51.728;5.248;2023-12-07T04:30:14;102048.80;;;-0.68;100.00
78892;BME280;68368;51.728;5.248;2023-12-07T04:32:19;102049.60;;;-0.69;100.00
78892;BME280;68368;51.728;5.248;2023-12-07T04:34:24;102045.13;;;-0.71;100.00
78892;BME280;68368;51.728;5.248;2023-12-07T04:36:30;102046.66;;;-0.75;100.00
78892;BME280;68368;51.728;5.248;2023-12-07T04:38:34;102047.92;;;-0.77;100.00
78892;BME280;68368;51.728;5.248;2023-12-07T04:40:39;102057.48;;;-0.78;100.00
78892;BME280;68368;51.728;5.248;2023-12-07T04:42:44;102058.69;;;-0.75;100.00
78892;BME280;68368;51.728;5.248;2023-12-07T04:44:54;102051.20;;;-0.72;100.00
78892;BME280;68368;51.728;5.248;2023-12-07T04:46:59;102046.09;;;-0.70;100.00
78892;BME280;68368;51.728;5.248;2023-12-07T04:49:05;102050.73;;;-0.67;100.00
78892;BME280;68368;51.728;5.248;2023-12-07T04:51:10;102039.09;;;-0.66;100.00
78892;BME280;68368;51.728;5.248;2023-12-07T04:53:15;102044.55;;;-0.66;100.00
78892;BME280;68368;51.728;5.248;2023-12-07T04:55:22;102040.02;;;-0.66;100.00
78892;BME280;68368;51.728;5.248;2023-12-07T04:57:28;102043.66;;;-0.66;100.00
78892;BME280;68368;51.728;5.248;2023-12-07T04:59:36;102041.66;;;-0.67;100.00
78892;BME280;68368;51.728;5.248;2023-12-07T05:01:41;102039.05;;;-0.67;100.00
78892;BME280;68368;51.728;5.248;2023-12-07T05:03:45;102042.16;;;-0.68;100.00
78892;BME280;68368;51.728;5.248;2023-12-07T05:05:51;102039.27;;;-0.67;100.00
78892;BME280;68368;51.728;5.248;2023-12-07T05:07:57;102031.59;;;-0.66;100.00
78892;BME280;68368;51.728;5.248;2023-12-07T05:10:02;102034.74;;;-0.66;100.00
78892;BME280;68368;51.728;5.248;2023-12-07T05:12:08;102032.21;;;-0.68;100.00
78892;BME280;68368;51.728;5.248;2023-12-07T05:14:13;102032.08;;;-0.71;100.00
78892;BME280;68368;51.728;5.248;2023-12-07T05:16:19;102030.36;;;-0.73;100.00
78892;BME280;68368;51.728;5.248;2023-12-07T05:18:23;102031.91;;;-0.77;100.00
78892;BME280;68368;51.728;5.248;2023-12-07T05:20:29;102039.62;;;-0.79;100.00
78892;BME280;68368;51.728;5.248;2023-12-07T05:22:34;102038.52;;;-0.80;100.00
78892;BME280;68368;51.728;5.248;2023-12-07T05:24:39;102039.80;;;-0.82;100.00
78892;BME280;68368;51.728;5.248;2023-12-07T05:26:45;102034.23;;;-0.82;100.00
78892;BME280;68368;51.728;5.248;2023-12-07T05:28:50;102035.65;;;-0.79;100.00
78892;BME280;68368;51.728;5.248;2023-12-07T05:30:56;102034.21;;;-0.73;100.00
78892;BME280;68368;51.728;5.248;2023-12-07T05:33:02;102025.77;;;-0.72;100.00
78892;BME280;68368;51.728;5.248;2023-12-07T05:35:09;102023.55;;;-0.70;100.00
78892;BME280;68368;51.728;5.248;2023-12-07T05:37:14;102020.02;;;-0.72;100.00
78892;BME280;68368;51.728;5.248;2023-12-07T05:39:18;102021.22;;;-0.72;100.00
78892;BME280;68368;51.728;5.248;2023-12-07T05:41:23;102028.31;;;-0.73;100.00
78892;BME280;68368;51.728;5.248;2023-12-07T05:43:30;102029.69;;;-0.73;100.00
78892;BME280;68368;51.728;5.248;2023-12-07T05:45:35;102028.73;;;-0.71;100.00
78892;BME280;68368;51.728;5.248;2023-12-07T05:47:40;102025.57;;;-0.68;100.00
78892;BME280;68368;51.728;5.248;2023-12-07T05:49:45;102018.47;;;-0.64;100.00
78892;BME280;68368;51.728;5.248;2023-12-07T05:51:51;102011.78;;;-0.62;100.00
78892;BME280;68368;51.728;5.248;2023-12-07T05:53:56;102016.67;;;-0.62;100.00
78892;BME280;68368;51.728;5.248;2023-12-07T05:56:00;102020.02;;;-0.61;100.00
78892;BME280;68368;51.728;5.248;2023-12-07T05:58:05;102020.45;;;-0.60;100.00
78892;BME280;68368;51.728;5.248;2023-12-07T06:00:13;102019.07;;;-0.60;100.00
78892;BME280;68368;51.728;5.248;2023-12-07T06:02:20;102018.34;;;-0.61;100.00
78892;BME280;68368;51.728;5.248;2023-12-07T06:04:25;102019.97;;;-0.62;100.00
78892;BME280;68368;51.728;5.248;2023-12-07T06:06:30;102019.01;;;-0.64;100.00
78892;BME280;68368;51.728;5.248;2023-12-07T06:08:36;102023.36;;;-0.68;100.00
78892;BME280;68368;51.728;5.248;2023-12-07T06:10:42;102023.20;;;-0.71;100.00
78892;BME280;68368;51.728;5.248;2023-12-07T06:12:47;102030.59;;;-0.73;100.00
78892;BME280;68368;51.728;5.248;2023-12-07T06:14:52;102030.79;;;-0.72;100.00
78892;BME280;68368;51.728;5.248;2023-12-07T06:16:58;102034.81;;;-0.68;100.00
78892;BME280;68368;51.728;5.248;2023-12-07T06:19:03;102034.52;;;-0.64;100.00
78892;BME280;68368;51.728;5.248;2023-12-07T06:21:11;102033.90;;;-0.63;100.00
78892;BME280;68368;51.728;5.248;2023-12-07T06:23:14;102035.65;;;-0.63;100.00
78892;BME280;68368;51.728;5.248;2023-12-07T06:25:19;102034.58;;;-0.63;100.00
78892;BME280;68368;51.728;5.248;2023-12-07T06:27:25;102035.06;;;-0.64;100.00
78892;BME280;68368;51.728;5.248;2023-12-07T06:29:29;102031.31;;;-0.65;100.00
78892;BME280;68368;51.728;5.248;2023-12-07T06:31:36;102027.81;;;-0.66;100.00
78892;BME280;68368;51.728;5.248;2023-12-07T06:33:41;102025.77;;;-0.65;100.00
78892;BME280;68368;51.728;5.248;2023-12-07T06:35:46;102023.29;;;-0.65;100.00
78892;BME280;68368;51.728;5.248;2023-12-07T06:37:51;102018.59;;;-0.65;100.00
78892;BME280;68368;51.728;5.248;2023-12-07T06:39:55;102021.59;;;-0.65;100.00
78892;BME280;68368;51.728;5.248;2023-12-07T06:42:01;102014.52;;;-0.63;100.00
78892;BME280;68368;51.728;5.248;2023-12-07T06:44:07;102009.14;;;-0.63;100.00
78892;BME280;68368;51.728;5.248;2023-12-07T06:46:13;102005.17;;;-0.62;100.00
78892;BME280;68368;51.728;5.248;2023-12-07T06:48:18;102002.09;;;-0.61;100.00
78892;BME280;68368;51.728;5.248;2023-12-07T06:50:24;102005.97;;;-0.60;100.00
78892;BME280;68368;51.728;5.248;2023-12-07T06:52:32;102007.70;;;-0.60;100.00
78892;BME280;68368;51.728;5.248;2023-12-07T06:54:37;102000.52;;;-0.61;100.00
78892;BME280;68368;51.728;5.248;2023-12-07T06:56:42;101993.73;;;-0.61;100.00
78892;BME280;68368;51.728;5.248;2023-12-07T06:58:46;101995.16;;;-0.60;100.00
78892;BME280;68368;51.728;5.248;2023-12-07T07:00:53;101991.34;;;-0.60;100.00
78892;BME280;68368;51.728;5.248;2023-12-07T07:02:58;101995.36;;;-0.56;100.00
78892;BME280;68368;51.728;5.248;2023-12-07T07:05:03;102000.64;;;-0.52;100.00
78892;BME280;68368;51.728;5.248;2023-12-07T07:07:08;102002.50;;;-0.50;100.00
78892;BME280;68368;51.728;5.248;2023-12-07T07:09:13;102004.84;;;-0.49;100.00
78892;BME280;68368;51.728;5.248;2023-12-07T07:11:21;102010.77;;;-0.49;100.00
78892;BME280;68368;51.728;5.248;2023-12-07T07:13:28;102010.78;;;-0.49;100.00
78892;BME280;68368;51.728;5.248;2023-12-07T07:15:33;102012.23;;;-0.47;100.00
78892;BME280;68368;51.728;5.248;2023-12-07T07:17:38;102005.82;;;-0.47;100.00
78892;BME280;68368;51.728;5.248;2023-12-07T07:19:44;102007.14;;;-0.45;100.00
78892;BME280;68368;51.728;5.248;2023-12-07T07:21:49;102015.04;;;-0.44;100.00
78892;BME280;68368;51.728;5.248;2023-12-07T07:23:54;102018.61;;;-0.42;100.00
78892;BME280;68368;51.728;5.248;2023-12-07T07:25:59;102025.42;;;-0.42;100.00
78892;BME280;68368;51.728;5.248;2023-12-07T07:28:04;102028.85;;;-0.43;100.00
78892;BME280;68368;51.728;5.248;2023-12-07T07:30:12;102027.16;;;-0.42;100.00
78892;BME280;68368;51.728;5.248;2023-12-07T07:32:17;102024.76;;;-0.41;100.00
78892;BME280;68368;51.728;5.248;2023-12-07T07:34:22;102024.11;;;-0.40;100.00
78892;BME280;68368;51.728;5.248;2023-12-07T07:36:27;102025.09;;;-0.39;100.00
78892;BME280;68368;51.728;5.248;2023-12-07T07:38:31;102025.35;;;-0.37;100.00
78892;BME280;68368;51.728;5.248;2023-12-07T07:40:37;102018.26;;;-0.36;100.00
78892;BME280;68368;51.728;5.248;2023-12-07T07:42:41;102021.66;;;-0.35;100.00
78892;BME280;68368;51.728;5.248;2023-12-07T07:44:46;102022.44;;;-0.36;100.00
78892;BME280;68368;51.728;5.248;2023-12-07T07:46:54;102027.93;;;-0.38;100.00
78892;BME280;68368;51.728;5.248;2023-12-07T07:48:58;102034.06;;;-0.37;100.00
78892;BME280;68368;51.728;5.248;2023-12-07T07:51:04;102034.88;;;-0.35;100.00
78892;BME280;68368;51.728;5.248;2023-12-07T07:53:12;102029.16;;;-0.31;100.00
78892;BME280;68368;51.728;5.248;2023-12-07T07:55:17;102028.48;;;-0.31;100.00
78892;BME280;68368;51.728;5.248;2023-12-07T07:57:22;102029.55;;;-0.30;100.00
78892;BME280;68368;51.728;5.248;2023-12-07T07:59:27;102027.12;;;-0.30;100.00
78892;BME280;68368;51.728;5.248;2023-12-07T08:01:33;102025.01;;;-0.30;100.00
78892;BME280;68368;51.728;5.248;2023-12-07T08:03:37;102019.58;;;-0.31;100.00
78892;BME280;68368;51.728;5.248;2023-12-07T08:05:43;102020.45;;;-0.31;100.00
78892;BME280;68368;51.728;5.248;2023-12-07T08:07:48;102012.08;;;-0.31;100.00
78892;BME280;68368;51.728;5.248;2023-12-07T08:09:52;102014.85;;;-0.31;100.00
78892;BME280;68368;51.728;5.248;2023-12-07T08:11:57;102016.23;;;-0.31;100.00
78892;BME280;68368;51.728;5.248;2023-12-07T08:14:04;102017.50;;;-0.31;100.00
78892;BME280;68368;51.728;5.248;2023-12-07T08:16:11;102014.34;;;-0.31;100.00
78892;BME280;68368;51.728;5.248;2023-12-07T08:18:19;102014.85;;;-0.31;100.00
78892;BME280;68368;51.728;5.248;2023-12-07T08:20:24;102015.92;;;-0.31;100.00
78892;BME280;68368;51.728;5.248;2023-12-07T08:22:29;102013.99;;;-0.31;100.00
78892;BME280;68368;51.728;5.248;2023-12-07T08:24:34;102015.39;;;-0.31;100.00
78892;BME280;68368;51.728;5.248;2023-12-07T08:26:38;102021.20;;;-0.30;100.00
78892;BME280;68368;51.728;5.248;2023-12-07T08:28:44;102025.67;;;-0.28;100.00
78892;BME280;68368;51.728;5.248;2023-12-07T08:30:48;102018.25;;;-0.26;100.00
78892;BME280;68368;51.728;5.248;2023-12-07T08:32:53;102023.45;;;-0.24;100.00
78892;BME280;68368;51.728;5.248;2023-12-07T08:34:58;102018.70;;;-0.21;100.00
78892;BME280;68368;51.728;5.248;2023-12-07T08:37:04;102023.45;;;-0.17;100.00
78892;BME280;68368;51.728;5.248;2023-12-07T08:39:09;102017.63;;;-0.11;100.00
78892;BME280;68368;51.728;5.248;2023-12-07T08:41:14;102024.58;;;-0.05;100.00
78892;BME280;68368;51.728;5.248;2023-12-07T08:43:24;102022.42;;;-0.03;100.00
78892;BME280;68368;51.728;5.248;2023-12-07T08:45:31;102025.55;;;-0.00;100.00
78892;BME280;68368;51.728;5.248;2023-12-07T08:47:37;102022.30;;;0.01;100.00
78892;BME280;68368;51.728;5.248;2023-12-07T08:49:42;102016.21;;;0.02;100.00
78892;BME280;68368;51.728;5.248;2023-12-07T08:51:47;102017.85;;;0.03;100.00
78892;BME280;68368;51.728;5.248;2023-12-07T08:53:52;102014.77;;;0.05;100.00
78892;BME280;68368;51.728;5.248;2023-12-07T08:55:57;102013.49;;;0.07;100.00
78892;BME280;68368;51.728;5.248;2023-12-07T08:58:03;102007.27;;;0.08;100.00
78892;BME280;68368;51.728;5.248;2023-12-07T09:00:11;102014.92;;;0.10;100.00
78892;BME280;68368;51.728;5.248;2023-12-07T09:02:16;102007.81;;;0.12;100.00
78892;BME280;68368;51.728;5.248;2023-12-07T09:04:21;102011.61;;;0.14;100.00
78892;BME280;68368;51.728;5.248;2023-12-07T09:06:26;102010.84;;;0.16;100.00
78892;BME280;68368;51.728;5.248;2023-12-07T09:08:31;102008.67;;;0.18;100.00
78892;BME280;68368;51.728;5.248;2023-12-07T09:10:35;102006.19;;;0.21;100.00
78892;BME280;68368;51.728;5.248;2023-12-07T09:12:40;102006.39;;;0.21;100.00
78892;BME280;68368;51.728;5.248;2023-12-07T09:14:45;102007.28;;;0.21;100.00
78892;BME280;68368;51.728;5.248;2023-12-07T09:16:50;102005.54;;;0.21;100.00
78892;BME280;68368;51.728;5.248;2023-12-07T09:18:55;102002.03;;;0.25;100.00
78892;BME280;68368;51.728;5.248;2023-12-07T09:21:00;102001.14;;;0.28;100.00
78892;BME280;68368;51.728;5.248;2023-12-07T09:23:05;102006.38;;;0.31;100.00
78892;BME280;68368;51.728;5.248;2023-12-07T09:25:11;102001.67;;;0.35;100.00
78892;BME280;68368;51.728;5.248;2023-12-07T09:27:16;102004.09;;;0.38;100.00
78892;BME280;68368;51.728;5.248;2023-12-07T09:29:21;102005.02;;;0.43;100.00
78892;BME280;68368;51.728;5.248;2023-12-07T09:31:25;102005.33;;;0.49;100.00
78892;BME280;68368;51.728;5.248;2023-12-07T09:33:32;102006.06;;;0.54;100.00
78892;BME280;68368;51.728;5.248;2023-12-07T09:35:41;102002.92;;;0.57;100.00
78892;BME280;68368;51.728;5.248;2023-12-07T09:37:47;101997.05;;;0.62;100.00
78892;BME280;68368;51.728;5.248;2023-12-07T09:39:52;101992.23;;;0.66;100.00
78892;BME280;68368;51.728;5.248;2023-12-07T09:41:57;101986.65;;;0.71;100.00
78892;BME280;68368;51.728;5.248;2023-12-07T09:44:02;101985.52;;;0.73;100.00
78892;BME280;68368;51.728;5.248;2023-12-07T09:46:08;101988.41;;;0.75;100.00
78892;BME280;68368;51.728;5.248;2023-12-07T09:48:13;101985.55;;;0.77;100.00
78892;BME280;68368;51.728;5.248;2023-12-07T09:50:19;101988.02;;;0.81;100.00
78892;BME280;68368;51.728;5.248;2023-12-07T09:52:25;101987.16;;;0.85;100.00
78892;BME280;68368;51.728;5.248;2023-12-07T09:54:32;101974.63;;;0.90;100.00
78892;BME280;68368;51.728;5.248;2023-12-07T09:56:35;101970.29;;;0.94;100.00
78892;BME280;68368;51.728;5.248;2023-12-07T09:58:42;101964.24;;;0.96;100.00
78892;BME280;68368;51.728;5.248;2023-12-07T10:00:48;101960.49;;;0.98;100.00
78892;BME280;68368;51.728;5.248;2023-12-07T10:02:55;101958.27;;;0.99;100.00
78892;BME280;68368;51.728;5.248;2023-12-07T10:05:18;101960.67;;;0.98;100.00
78892;BME280;68368;51.728;5.248;2023-12-07T10:07:34;101959.09;;;0.98;100.00
78892;BME280;68368;51.728;5.248;2023-12-07T10:09:42;101958.44;;;0.99;100.00
78892;BME280;68368;51.728;5.248;2023-12-07T10:11:47;101953.00;;;0.99;100.00
78892;BME280;68368;51.728;5.248;2023-12-07T10:13:52;101947.89;;;1.01;100.00
78892;BME280;68368;51.728;5.248;2023-12-07T10:16:11;101939.75;;;1.03;100.00
78892;BME280;68368;51.728;5.248;2023-12-07T10:18:24;101936.70;;;1.05;100.00
78892;BME280;68368;51.728;5.248;2023-12-07T10:20:30;101932.05;;;1.10;100.00
78892;BME280;68368;51.728;5.248;2023-12-07T10:22:39;101926.77;;;1.18;100.00
78892;BME280;68368;51.728;5.248;2023-12-07T10:24:47;101925.08;;;1.26;100.00
78892;BME280;68368;51.728;5.248;2023-12-07T10:26:57;101922.86;;;1.31;100.00
78892;BME280;68368;51.728;5.248;2023-12-07T10:29:04;101922.94;;;1.37;100.00
78892;BME280;68368;51.728;5.248;2023-12-07T10:31:11;101924.88;;;1.41;100.00
78892;BME280;68368;51.728;5.248;2023-12-07T10:33:15;101916.34;;;1.46;100.00
78892;BME280;68368;51.728;5.248;2023-12-07T10:35:21;101910.19;;;1.53;100.00
78892;BME280;68368;51.728;5.248;2023-12-07T10:37:28;101903.12;;;1.60;100.00
78892;BME280;68368;51.728;5.248;2023-12-07T10:39:33;101898.59;;;1.65;100.00
78892;BME280;68368;51.728;5.248;2023-12-07T10:41:42;101894.21;;;1.72;100.00
78892;BME280;68368;51.728;5.248;2023-12-07T10:43:51;101889.71;;;1.78;100.00
78892;BME280;68368;51.728;5.248;2023-12-07T10:45:56;101881.66;;;1.82;100.00
78892;BME280;68368;51.728;5.248;2023-12-07T10:48:05;101881.60;;;1.89;100.00
78892;BME280;68368;51.728;5.248;2023-12-07T10:50:16;101887.67;;;1.96;100.00
78892;BME280;68368;51.728;5.248;2023-12-07T10:52:29;101882.53;;;2.03;100.00